sensor_id;sensor_type;location;lat;lon;timestamp;P1;durP1;ratioP1;P2;durP2;ratioP2
20230;SDS011;10274;49.022;9.338;2022-12-07T00:01:50;3.67;;;2.80;;
20230;SDS011;10274;49.022;9.338;2022-12-07T00:04:17;3.83;;;2.60;;
20230;SDS011;10274;49.022;9.338;2022-12-07T00:06:45;2.73;;;2.47;;
20230;SDS011;10274;49.022;9.338;2022-12-07T00:09:13;2.63;;;2.37;;
20230;SDS011;10274;49.022;9.338;2022-12-07T00:11:43;2.83;;;2.40;;
20230;SDS011;10274;49.022;9.338;2022-12-07T00:14:11;3.10;;;2.43;;
20230;SDS011;10274;49.022;9.338;2022-12-07T00:16:39;4.93;;;2.70;;
20230;SDS011;10274;49.022;9.338;2022-12-07T00:19:07;4.27;;;2.67;;
20230;SDS011;10274;49.022;9.338;2022-12-07T00:21:35;2.80;;;1.93;;
20230;SDS011;10274;49.022;9.338;2022-12-07T00:24:02;3.77;;;2.50;;
20230;SDS011;10274;49.022;9.338;2022-12-07T00:26:31;4.40;;;2.80;;
20230;SDS011;10274;49.022;9.338;2022-12-07T00:29:00;2.77;;;2.20;;
20230;SDS011;10274;49.022;9.338;2022-12-07T00:31:30;2.53;;;2.23;;
20230;SDS011;10274;49.022;9.338;2022-12-07T00:34:00;2.23;;;2.03;;
20230;SDS011;10274;49.022;9.338;2022-12-07T00:36:27;2.43;;;1.80;;
20230;SDS011;10274;49.022;9.338;2022-12-07T00:38:54;4.07;;;2.33;;
20230;SDS011;10274;49.022;9.338;2022-12-07T00:41:23;3.10;;;2.57;;
20230;SDS011;10274;49.022;9.338;2022-12-07T00:43:51;3.63;;;2.00;;
20230;SDS011;10274;49.022;9.338;2022-12-07T00:46:20;3.57;;;2.73;;
20230;SDS011;10274;49.022;9.338;2022-12-07T00:48:47;3.70;;;2.40;;
20230;SDS011;10274;49.022;9.338;2022-12-07T00:51:15;3.17;;;2.43;;
20230;SDS011;10274;49.022;9.338;2022-12-07T00:53:43;3.57;;;2.60;;
20230;SDS011;10274;49.022;9.338;2022-12-07T00:56:11;3.30;;;2.30;;
20230;SDS011;10274;49.022;9.338;2022-12-07T00:58:39;2.70;;;2.10;;
20230;SDS011;10274;49.022;9.338;2022-12-07T01:01:07;2.53;;;2.20;;
20230;SDS011;10274;49.022;9.338;2022-12-07T01:03:36;3.13;;;2.50;;
20230;SDS011;10274;49.022;9.338;2022-12-07T01:06:04;3.20;;;2.83;;
20230;SDS011;10274;49.022;9.338;2022-12-07T01:08:31;4.13;;;2.77;;
20230;SDS011;10274;49.022;9.338;2022-12-07T01:10:59;3.53;;;2.47;;
20230;SDS011;10274;49.022;9.338;2022-12-07T01:13:27;2.83;;;1.90;;
20230;SDS011;10274;49.022;9.338;2022-12-07T01:15:56;2.33;;;1.90;;
20230;SDS011;10274;49.022;9.338;2022-12-07T01:18:25;4.20;;;2.83;;
20230;SDS011;10274;49.022;9.338;2022-12-07T01:21:03;3.60;;;2.00;;
20230;SDS011;10274;49.022;9.338;2022-12-07T01:23:36;2.90;;;2.00;;
20230;SDS011;10274;49.022;9.338;2022-12-07T01:26:05;3.60;;;2.80;;
20230;SDS011;10274;49.022;9.338;2022-12-07T01:28:33;3.03;;;2.07;;
20230;SDS011;10274;49.022;9.338;2022-12-07T01:31:00;5.07;;;2.53;;
20230;SDS011;10274;49.022;9.338;2022-12-07T01:33:29;3.30;;;2.90;;
20230;SDS011;10274;49.022;9.338;2022-12-07T01:36:03;2.80;;;2.50;;
20230;SDS011;10274;49.022;9.338;2022-12-07T01:38:31;5.27;;;2.77;;
20230;SDS011;10274;49.022;9.338;2022-12-07T01:40:59;3.97;;;2.83;;
20230;SDS011;10274;49.022;9.338;2022-12-07T01:43:27;3.10;;;2.60;;
20230;SDS011;10274;49.022;9.338;2022-12-07T01:45:55;4.00;;;3.37;;
20230;SDS011;10274;49.022;9.338;2022-12-07T01:48:24;2.90;;;2.30;;
20230;SDS011;10274;49.022;9.338;2022-12-07T01:50:53;3.00;;;2.07;;
20230;SDS011;10274;49.022;9.338;2022-12-07T01:53:25;3.20;;;2.57;;
20230;SDS011;10274;49.022;9.338;2022-12-07T01:55:55;4.60;;;3.13;;
20230;SDS011;10274;49.022;9.338;2022-12-07T01:58:23;3.40;;;2.37;;
20230;SDS011;10274;49.022;9.338;2022-12-07T02:00:51;2.57;;;2.37;;
20230;SDS011;10274;49.022;9.338;2022-12-07T02:03:18;3.80;;;2.17;;
20230;SDS011;10274;49.022;9.338;2022-12-07T02:05:48;3.30;;;2.90;;
20230;SDS011;10274;49.022;9.338;2022-12-07T02:08:16;2.43;;;2.20;;
20230;SDS011;10274;49.022;9.338;2022-12-07T02:10:45;2.93;;;2.63;;
20230;SDS011;10274;49.022;9.338;2022-12-07T02:13:12;2.50;;;2.27;;
20230;SDS011;10274;49.022;9.338;2022-12-07T02:15:45;3.13;;;2.73;;
20230;SDS011;10274;49.022;9.338;2022-12-07T02:18:25;3.87;;;2.57;;
20230;SDS011;10274;49.022;9.338;2022-12-07T02:21:03;7.17;;;2.53;;
20230;SDS011;10274;49.022;9.338;2022-12-07T02:23:40;3.20;;;2.90;;
20230;SDS011;10274;49.022;9.338;2022-12-07T02:29:12;2.67;;;2.20;;
20230;SDS011;10274;49.022;9.338;2022-12-07T02:31:44;1.60;;;1.50;;
20230;SDS011;10274;49.022;9.338;2022-12-07T02:34:18;2.40;;;1.90;;
20230;SDS011;10274;49.022;9.338;2022-12-07T02:36:51;3.23;;;2.80;;
20230;SDS011;10274;49.022;9.338;2022-12-07T02:39:20;3.70;;;2.70;;
20230;SDS011;10274;49.022;9.338;2022-12-07T02:41:54;2.53;;;2.10;;
20230;SDS011;10274;49.022;9.338;2022-12-07T02:44:25;2.10;;;1.80;;
20230;SDS011;10274;49.022;9.338;2022-12-07T02:46:56;2.63;;;2.07;;
20230;SDS011;10274;49.022;9.338;2022-12-07T02:49:26;3.37;;;2.00;;
20230;SDS011;10274;49.022;9.338;2022-12-07T02:51:54;3.60;;;2.60;;
20230;SDS011;10274;49.022;9.338;2022-12-07T02:54:21;3.37;;;2.60;;
20230;SDS011;10274;49.022;9.338;2022-12-07T02:56:48;3.87;;;2.87;;
20230;SDS011;10274;49.022;9.338;2022-12-07T02:59:21;4.23;;;2.37;;
20230;SDS011;10274;49.022;9.338;2022-12-07T03:01:59;2.87;;;2.40;;
20230;SDS011;10274;49.022;9.338;2022-12-07T03:04:39;4.30;;;2.47;;
20230;SDS011;10274;49.022;9.338;2022-12-07T03:07:15;5.80;;;3.13;;
20230;SDS011;10274;49.022;9.338;2022-12-07T03:09:49;6.20;;;2.77;;
20230;SDS011;10274;49.022;9.338;2022-12-07T03:12:24;4.47;;;2.97;;
20230;SDS011;10274;49.022;9.338;2022-12-07T03:14:59;5.50;;;2.67;;
20230;SDS011;10274;49.022;9.338;2022-12-07T03:17:30;3.17;;;2.87;;
20230;SDS011;10274;49.022;9.338;2022-12-07T03:20:02;5.00;;;3.30;;
20230;SDS011;10274;49.022;9.338;2022-12-07T03:22:31;3.47;;;2.57;;
20230;SDS011;10274;49.022;9.338;2022-12-07T03:25:03;4.23;;;2.70;;
20230;SDS011;10274;49.022;9.338;2022-12-07T03:27:32;5.47;;;3.40;;
20230;SDS011;10274;49.022;9.338;2022-12-07T03:30:05;4.53;;;3.13;;
20230;SDS011;10274;49.022;9.338;2022-12-07T03:32:35;3.83;;;2.80;;
20230;SDS011;10274;49.022;9.338;2022-12-07T03:35:06;4.93;;;2.97;;
20230;SDS011;10274;49.022;9.338;2022-12-07T03:37:39;4.77;;;3.20;;
20230;SDS011;10274;49.022;9.338;2022-12-07T03:40:11;4.53;;;2.80;;
20230;SDS011;10274;49.022;9.338;2022-12-07T03:42:41;6.53;;;3.30;;
20230;SDS011;10274;49.022;9.338;2022-12-07T03:45:10;6.30;;;3.90;;
20230;SDS011;10274;49.022;9.338;2022-12-07T03:47:40;5.17;;;3.60;;
20230;SDS011;10274;49.022;9.338;2022-12-07T03:50:13;6.60;;;4.00;;
20230;SDS011;10274;49.022;9.338;2022-12-07T03:52:44;5.73;;;3.63;;
20230;SDS011;10274;49.022;9.338;2022-12-07T03:55:17;6.53;;;3.93;;
20230;SDS011;10274;49.022;9.338;2022-12-07T03:57:49;6.33;;;4.20;;
20230;SDS011;10274;49.022;9.338;2022-12-07T04:00:20;4.37;;;3.83;;
20230;SDS011;10274;49.022;9.338;2022-12-07T04:02:48;4.60;;;3.80;;
20230;SDS011;10274;49.022;9.338;2022-12-07T04:05:18;6.63;;;3.93;;
20230;SDS011;10274;49.022;9.338;2022-12-07T04:07:45;6.63;;;4.10;;
20230;SDS011;10274;49.022;9.338;2022-12-07T04:10:12;4.43;;;3.97;;
20230;SDS011;10274;49.022;9.338;2022-12-07T04:12:39;4.93;;;4.07;;
20230;SDS011;10274;49.022;9.338;2022-12-07T04:15:06;4.17;;;3.20;;
20230;SDS011;10274;49.022;9.338;2022-12-07T04:17:35;4.07;;;3.37;;
20230;SDS011;10274;49.022;9.338;2022-12-07T04:20:02;4.80;;;3.07;;
20230;SDS011;10274;49.022;9.338;2022-12-07T04:22:30;4.03;;;3.43;;
20230;SDS011;10274;49.022;9.338;2022-12-07T04:24:57;5.37;;;3.70;;
20230;SDS011;10274;49.022;9.338;2022-12-07T04:27:23;5.27;;;3.70;;
20230;SDS011;10274;49.022;9.338;2022-12-07T04:29:50;4.67;;;3.90;;
20230;SDS011;10274;49.022;9.338;2022-12-07T04:32:17;4.33;;;3.10;;
20230;SDS011;10274;49.022;9.338;2022-12-07T04:34:45;4.10;;;3.27;;
20230;SDS011;10274;49.022;9.338;2022-12-07T04:37:11;3.97;;;2.80;;
20230;SDS011;10274;49.022;9.338;2022-12-07T04:39:38;4.80;;;3.80;;
20230;SDS011;10274;49.022;9.338;2022-12-07T04:42:05;4.03;;;3.40;;
20230;SDS011;10274;49.022;9.338;2022-12-07T04:44:31;4.17;;;2.70;;
20230;SDS011;10274;49.022;9.338;2022-12-07T04:46:58;4.00;;;3.47;;
20230;SDS011;10274;49.022;9.338;2022-12-07T04:49:25;3.83;;;2.93;;
20230;SDS011;10274;49.022;9.338;2022-12-07T04:51:53;5.07;;;2.77;;
20230;SDS011;10274;49.022;9.338;2022-12-07T04:54:20;4.43;;;3.23;;
20230;SDS011;10274;49.022;9.338;2022-12-07T04:56:47;3.47;;;2.83;;
20230;SDS011;10274;49.022;9.338;2022-12-07T04:59:14;3.87;;;3.13;;
20230;SDS011;10274;49.022;9.338;2022-12-07T05:01:42;3.83;;;2.67;;
20230;SDS011;10274;49.022;9.338;2022-12-07T05:04:09;2.97;;;2.67;;
20230;SDS011;10274;49.022;9.338;2022-12-07T05:06:36;3.87;;;2.60;;
20230;SDS011;10274;49.022;9.338;2022-12-07T05:09:04;3.60;;;2.53;;
20230;SDS011;10274;49.022;9.338;2022-12-07T05:11:31;3.67;;;2.80;;
20230;SDS011;10274;49.022;9.338;2022-12-07T05:14:05;3.77;;;2.67;;
20230;SDS011;10274;49.022;9.338;2022-12-07T05:16:33;3.57;;;2.57;;
20230;SDS011;10274;49.022;9.338;2022-12-07T05:19:00;3.50;;;2.53;;
20230;SDS011;10274;49.022;9.338;2022-12-07T05:21:26;3.20;;;2.37;;
20230;SDS011;10274;49.022;9.338;2022-12-07T05:23:53;3.53;;;2.97;;
20230;SDS011;10274;49.022;9.338;2022-12-07T05:26:21;2.27;;;2.07;;
20230;SDS011;10274;49.022;9.338;2022-12-07T05:28:49;3.27;;;2.60;;
20230;SDS011;10274;49.022;9.338;2022-12-07T05:31:17;2.80;;;2.33;;
20230;SDS011;10274;49.022;9.338;2022-12-07T05:33:44;6.13;;;3.87;;
20230;SDS011;10274;49.022;9.338;2022-12-07T05:36:10;2.70;;;2.40;;
20230;SDS011;10274;49.022;9.338;2022-12-07T05:38:37;3.50;;;2.83;;
20230;SDS011;10274;49.022;9.338;2022-12-07T05:41:05;2.67;;;2.10;;
20230;SDS011;10274;49.022;9.338;2022-12-07T05:43:34;2.37;;;2.10;;
20230;SDS011;10274;49.022;9.338;2022-12-07T05:46:00;3.67;;;3.10;;
20230;SDS011;10274;49.022;9.338;2022-12-07T05:48:27;2.50;;;2.27;;
20230;SDS011;10274;49.022;9.338;2022-12-07T05:50:54;4.83;;;3.33;;
20230;SDS011;10274;49.022;9.338;2022-12-07T05:53:21;3.07;;;2.47;;
20230;SDS011;10274;49.022;9.338;2022-12-07T05:55:47;3.33;;;2.53;;
20230;SDS011;10274;49.022;9.338;2022-12-07T05:58:14;2.70;;;2.33;;
20230;SDS011;10274;49.022;9.338;2022-12-07T06:01:00;2.50;;;2.30;;
20230;SDS011;10274;49.022;9.338;2022-12-07T06:03:26;2.70;;;2.27;;
20230;SDS011;10274;49.022;9.338;2022-12-07T06:05:53;4.37;;;3.17;;
20230;SDS011;10274;49.022;9.338;2022-12-07T06:08:20;3.13;;;2.83;;
20230;SDS011;10274;49.022;9.338;2022-12-07T06:10:47;3.73;;;2.83;;
20230;SDS011;10274;49.022;9.338;2022-12-07T06:13:35;3.80;;;2.60;;
20230;SDS011;10274;49.022;9.338;2022-12-07T06:16:02;4.30;;;2.70;;
20230;SDS011;10274;49.022;9.338;2022-12-07T06:18:29;3.47;;;2.73;;
20230;SDS011;10274;49.022;9.338;2022-12-07T06:20:56;3.83;;;2.80;;
20230;SDS011;10274;49.022;9.338;2022-12-07T06:23:23;4.90;;;3.00;;
20230;SDS011;10274;49.022;9.338;2022-12-07T06:25:50;3.57;;;2.90;;
20230;SDS011;10274;49.022;9.338;2022-12-07T06:28:16;3.97;;;3.23;;
20230;SDS011;10274;49.022;9.338;2022-12-07T06:30:43;4.20;;;2.97;;
20230;SDS011;10274;49.022;9.338;2022-12-07T06:33:11;2.73;;;2.17;;
20230;SDS011;10274;49.022;9.338;2022-12-07T06:35:38;2.57;;;2.37;;
20230;SDS011;10274;49.022;9.338;2022-12-07T06:38:04;3.13;;;2.40;;
20230;SDS011;10274;49.022;9.338;2022-12-07T06:40:31;3.33;;;2.70;;
20230;SDS011;10274;49.022;9.338;2022-12-07T06:42:58;3.40;;;2.97;;
20230;SDS011;10274;49.022;9.338;2022-12-07T06:45:24;4.73;;;3.30;;
20230;SDS011;10274;49.022;9.338;2022-12-07T06:47:51;4.37;;;3.00;;
20230;SDS011;10274;49.022;9.338;2022-12-07T06:50:19;3.30;;;2.87;;
20230;SDS011;10274;49.022;9.338;2022-12-07T06:52:46;3.67;;;2.63;;
20230;SDS011;10274;49.022;9.338;2022-12-07T06:55:13;3.33;;;2.93;;
20230;SDS011;10274;49.022;9.338;2022-12-07T06:57:39;4.63;;;3.00;;
20230;SDS011;10274;49.022;9.338;2022-12-07T07:00:06;4.60;;;3.90;;
20230;SDS011;10274;49.022;9.338;2022-12-07T07:02:34;4.20;;;3.50;;
20230;SDS011;10274;49.022;9.338;2022-12-07T07:05:01;4.70;;;3.40;;
20230;SDS011;10274;49.022;9.338;2022-12-07T07:07:29;4.63;;;2.87;;
20230;SDS011;10274;49.022;9.338;2022-12-07T07:09:55;4.80;;;2.53;;
20230;SDS011;10274;49.022;9.338;2022-12-07T07:12:22;2.73;;;2.23;;
20230;SDS011;10274;49.022;9.338;2022-12-07T07:14:49;5.20;;;3.03;;
20230;SDS011;10274;49.022;9.338;2022-12-07T07:17:16;3.50;;;2.47;;
20230;SDS011;10274;49.022;9.338;2022-12-07T07:19:42;4.87;;;3.33;;
20230;SDS011;10274;49.022;9.338;2022-12-07T07:22:09;3.33;;;3.00;;
20230;SDS011;10274;49.022;9.338;2022-12-07T07:24:37;4.13;;;3.00;;
20230;SDS011;10274;49.022;9.338;2022-12-07T07:27:04;5.50;;;3.63;;
20230;SDS011;10274;49.022;9.338;2022-12-07T07:29:30;4.43;;;3.13;;
20230;SDS011;10274;49.022;9.338;2022-12-07T07:31:57;4.43;;;3.60;;
20230;SDS011;10274;49.022;9.338;2022-12-07T07:34:24;6.63;;;4.13;;
20230;SDS011;10274;49.022;9.338;2022-12-07T07:36:50;8.60;;;4.53;;
20230;SDS011;10274;49.022;9.338;2022-12-07T07:39:17;6.30;;;3.80;;
20230;SDS011;10274;49.022;9.338;2022-12-07T07:41:45;16.13;;;8.20;;
20230;SDS011;10274;49.022;9.338;2022-12-07T07:44:12;14.90;;;6.50;;
20230;SDS011;10274;49.022;9.338;2022-12-07T07:46:39;7.67;;;4.47;;
20230;SDS011;10274;49.022;9.338;2022-12-07T07:49:06;8.03;;;5.10;;
20230;SDS011;10274;49.022;9.338;2022-12-07T07:51:33;5.30;;;3.00;;
20230;SDS011;10274;49.022;9.338;2022-12-07T07:53:59;3.83;;;3.07;;
20230;SDS011;10274;49.022;9.338;2022-12-07T07:56:26;5.57;;;3.57;;
20230;SDS011;10274;49.022;9.338;2022-12-07T07:58:54;6.53;;;3.77;;
20230;SDS011;10274;49.022;9.338;2022-12-07T08:01:21;4.47;;;3.13;;
20230;SDS011;10274;49.022;9.338;2022-12-07T08:03:48;5.10;;;2.60;;
20230;SDS011;10274;49.022;9.338;2022-12-07T08:06:15;4.20;;;2.63;;
20230;SDS011;10274;49.022;9.338;2022-12-07T08:08:42;4.17;;;2.70;;
20230;SDS011;10274;49.022;9.338;2022-12-07T08:11:09;4.70;;;3.70;;
20230;SDS011;10274;49.022;9.338;2022-12-07T08:13:36;3.57;;;3.00;;
20230;SDS011;10274;49.022;9.338;2022-12-07T08:16:04;5.33;;;2.60;;
20230;SDS011;10274;49.022;9.338;2022-12-07T08:18:34;4.40;;;2.50;;
20230;SDS011;10274;49.022;9.338;2022-12-07T08:21:01;3.57;;;2.77;;
20230;SDS011;10274;49.022;9.338;2022-12-07T08:23:29;3.60;;;2.60;;
20230;SDS011;10274;49.022;9.338;2022-12-07T08:25:59;4.60;;;3.20;;
20230;SDS011;10274;49.022;9.338;2022-12-07T08:28:27;4.13;;;2.90;;
20230;SDS011;10274;49.022;9.338;2022-12-07T08:30:58;4.40;;;2.23;;
20230;SDS011;10274;49.022;9.338;2022-12-07T08:33:27;4.37;;;2.63;;
20230;SDS011;10274;49.022;9.338;2022-12-07T08:35:54;4.37;;;2.77;;
20230;SDS011;10274;49.022;9.338;2022-12-07T08:38:21;3.63;;;2.97;;
20230;SDS011;10274;49.022;9.338;2022-12-07T08:40:53;3.23;;;2.47;;
20230;SDS011;10274;49.022;9.338;2022-12-07T08:43:20;4.77;;;2.87;;
20230;SDS011;10274;49.022;9.338;2022-12-07T08:45:46;4.67;;;3.20;;
20230;SDS011;10274;49.022;9.338;2022-12-07T08:48:15;5.00;;;2.73;;
20230;SDS011;10274;49.022;9.338;2022-12-07T08:50:48;4.10;;;2.50;;
20230;SDS011;10274;49.022;9.338;2022-12-07T08:53:15;3.73;;;2.50;;
20230;SDS011;10274;49.022;9.338;2022-12-07T08:55:42;2.50;;;2.03;;
20230;SDS011;10274;49.022;9.338;2022-12-07T08:58:10;4.40;;;2.90;;
20230;SDS011;10274;49.022;9.338;2022-12-07T09:00:37;4.27;;;2.90;;
20230;SDS011;10274;49.022;9.338;2022-12-07T09:03:04;4.17;;;2.47;;
20230;SDS011;10274;49.022;9.338;2022-12-07T09:05:31;3.83;;;2.47;;
20230;SDS011;10274;49.022;9.338;2022-12-07T09:08:01;3.70;;;3.17;;
20230;SDS011;10274;49.022;9.338;2022-12-07T09:10:28;3.30;;;2.50;;
20230;SDS011;10274;49.022;9.338;2022-12-07T09:12:55;3.90;;;2.37;;
20230;SDS011;10274;49.022;9.338;2022-12-07T09:15:25;3.27;;;2.50;;
20230;SDS011;10274;49.022;9.338;2022-12-07T09:17:52;3.10;;;2.63;;
20230;SDS011;10274;49.022;9.338;2022-12-07T09:20:19;4.37;;;3.20;;
20230;SDS011;10274;49.022;9.338;2022-12-07T09:22:45;1.80;;;1.60;;
20230;SDS011;10274;49.022;9.338;2022-12-07T09:25:14;4.20;;;2.47;;
20230;SDS011;10274;49.022;9.338;2022-12-07T09:27:40;3.10;;;2.47;;
20230;SDS011;10274;49.022;9.338;2022-12-07T09:30:08;4.43;;;2.57;;
20230;SDS011;10274;49.022;9.338;2022-12-07T09:32:35;3.13;;;2.83;;
20230;SDS011;10274;49.022;9.338;2022-12-07T09:35:01;3.73;;;2.50;;
20230;SDS011;10274;49.022;9.338;2022-12-07T09:37:28;3.17;;;1.77;;
20230;SDS011;10274;49.022;9.338;2022-12-07T09:39:56;6.73;;;4.03;;
20230;SDS011;10274;49.022;9.338;2022-12-07T09:42:27;14.70;;;5.93;;
20230;SDS011;10274;49.022;9.338;2022-12-07T09:44:58;13.87;;;7.43;;
20230;SDS011;10274;49.022;9.338;2022-12-07T09:47:26;5.10;;;3.00;;
20230;SDS011;10274;49.022;9.338;2022-12-07T09:49:54;3.53;;;2.80;;
20230;SDS011;10274;49.022;9.338;2022-12-07T09:52:26;4.67;;;3.40;;
20230;SDS011;10274;49.022;9.338;2022-12-07T09:54:54;8.03;;;4.97;;
20230;SDS011;10274;49.022;9.338;2022-12-07T09:57:22;3.13;;;2.83;;
20230;SDS011;10274;49.022;9.338;2022-12-07T09:59:56;3.80;;;2.77;;
20230;SDS011;10274;49.022;9.338;2022-12-07T10:02:29;3.40;;;2.30;;
20230;SDS011;10274;49.022;9.338;2022-12-07T10:05:02;3.73;;;2.60;;
20230;SDS011;10274;49.022;9.338;2022-12-07T10:07:31;3.10;;;2.03;;
20230;SDS011;10274;49.022;9.338;2022-12-07T10:09:57;2.80;;;1.90;;
20230;SDS011;10274;49.022;9.338;2022-12-07T10:12:24;3.37;;;2.40;;
20230;SDS011;10274;49.022;9.338;2022-12-07T10:14:56;2.90;;;2.13;;
20230;SDS011;10274;49.022;9.338;2022-12-07T10:17:29;4.33;;;2.90;;
20230;SDS011;10274;49.022;9.338;2022-12-07T10:22:54;5.27;;;2.93;;
20230;SDS011;10274;49.022;9.338;2022-12-07T10:25:24;6.33;;;3.53;;
20230;SDS011;10274;49.022;9.338;2022-12-07T10:27:59;2.17;;;1.70;;
20230;SDS011;10274;49.022;9.338;2022-12-07T10:30:29;2.80;;;2.00;;
20230;SDS011;10274;49.022;9.338;2022-12-07T10:32:57;3.37;;;2.10;;
20230;SDS011;10274;49.022;9.338;2022-12-07T10:35:25;3.93;;;2.27;;
20230;SDS011;10274;49.022;9.338;2022-12-07T10:37:53;3.43;;;2.47;;
20230;SDS011;10274;49.022;9.338;2022-12-07T10:40:24;4.00;;;2.67;;
20230;SDS011;10274;49.022;9.338;2022-12-07T10:43:02;2.73;;;1.80;;
20230;SDS011;10274;49.022;9.338;2022-12-07T10:45:32;1.87;;;1.40;;
20230;SDS011;10274;49.022;9.338;2022-12-07T10:48:00;2.30;;;1.93;;
20230;SDS011;10274;49.022;9.338;2022-12-07T10:50:41;1.60;;;1.43;;
20230;SDS011;10274;49.022;9.338;2022-12-07T10:53:23;2.63;;;2.10;;
20230;SDS011;10274;49.022;9.338;2022-12-07T10:56:05;2.87;;;2.23;;
20230;SDS011;10274;49.022;9.338;2022-12-07T10:58:46;3.77;;;2.33;;
20230;SDS011;10274;49.022;9.338;2022-12-07T11:01:23;3.43;;;2.13;;
20230;SDS011;10274;49.022;9.338;2022-12-07T11:04:08;2.27;;;1.77;;
20230;SDS011;10274;49.022;9.338;2022-12-07T11:06:46;1.50;;;1.13;;
20230;SDS011;10274;49.022;9.338;2022-12-07T11:09:26;3.53;;;1.70;;
20230;SDS011;10274;49.022;9.338;2022-12-07T11:12:22;1.67;;;1.33;;
20230;SDS011;10274;49.022;9.338;2022-12-07T11:14:58;3.13;;;1.73;;
20230;SDS011;10274;49.022;9.338;2022-12-07T11:17:34;1.93;;;1.73;;
20230;SDS011;10274;49.022;9.338;2022-12-07T11:20:12;2.37;;;1.80;;
20230;SDS011;10274;49.022;9.338;2022-12-07T11:22:50;1.73;;;1.63;;
20230;SDS011;10274;49.022;9.338;2022-12-07T11:25:25;2.23;;;1.87;;
20230;SDS011;10274;49.022;9.338;2022-12-07T11:28:03;2.17;;;1.97;;
20230;SDS011;10274;49.022;9.338;2022-12-07T11:30:41;2.13;;;1.73;;
20230;SDS011;10274;49.022;9.338;2022-12-07T11:33:17;1.83;;;1.73;;
20230;SDS011;10274;49.022;9.338;2022-12-07T11:35:50;2.57;;;1.80;;
20230;SDS011;10274;49.022;9.338;2022-12-07T11:38:24;2.30;;;1.67;;
20230;SDS011;10274;49.022;9.338;2022-12-07T11:40:55;2.40;;;2.10;;
20230;SDS011;10274;49.022;9.338;2022-12-07T11:43:37;5.90;;;2.23;;
20230;SDS011;10274;49.022;9.338;2022-12-07T11:46:18;2.60;;;2.10;;
20230;SDS011;10274;49.022;9.338;2022-12-07T11:48:51;3.50;;;2.20;;
20230;SDS011;10274;49.022;9.338;2022-12-07T11:51:25;2.23;;;1.40;;
20230;SDS011;10274;49.022;9.338;2022-12-07T11:53:56;4.63;;;2.17;;
20230;SDS011;10274;49.022;9.338;2022-12-07T11:56:28;3.53;;;1.90;;
20230;SDS011;10274;49.022;9.338;2022-12-07T11:58:57;2.33;;;1.93;;
20230;SDS011;10274;49.022;9.338;2022-12-07T12:01:33;2.80;;;1.97;;
20230;SDS011;10274;49.022;9.338;2022-12-07T12:04:11;2.73;;;1.47;;
20230;SDS011;10274;49.022;9.338;2022-12-07T12:06:49;2.30;;;1.60;;
20230;SDS011;10274;49.022;9.338;2022-12-07T12:09:17;2.77;;;2.43;;
20230;SDS011;10274;49.022;9.338;2022-12-07T12:14:43;2.03;;;1.53;;
20230;SDS011;10274;49.022;9.338;2022-12-07T12:17:23;4.00;;;2.40;;
20230;SDS011;10274;49.022;9.338;2022-12-07T12:20:16;3.00;;;1.97;;
20230;SDS011;10274;49.022;9.338;2022-12-07T12:22:48;3.23;;;2.27;;
20230;SDS011;10274;49.022;9.338;2022-12-07T12:25:20;4.13;;;3.03;;
20230;SDS011;10274;49.022;9.338;2022-12-07T12:27:49;2.70;;;2.13;;
20230;SDS011;10274;49.022;9.338;2022-12-07T12:33:12;3.20;;;2.13;;
20230;SDS011;10274;49.022;9.338;2022-12-07T12:35:43;3.10;;;2.33;;
20230;SDS011;10274;49.022;9.338;2022-12-07T12:38:32;2.97;;;2.20;;
20230;SDS011;10274;49.022;9.338;2022-12-07T12:41:00;2.50;;;2.20;;
20230;SDS011;10274;49.022;9.338;2022-12-07T12:43:47;2.43;;;2.17;;
20230;SDS011;10274;49.022;9.338;2022-12-07T12:55:23;3.80;;;2.57;;
20230;SDS011;10274;49.022;9.338;2022-12-07T12:58:30;5.27;;;2.50;;
20230;SDS011;10274;49.022;9.338;2022-12-07T13:04:27;3.53;;;2.77;;
20230;SDS011;10274;49.022;9.338;2022-12-07T13:07:01;3.57;;;2.47;;
20230;SDS011;10274;49.022;9.338;2022-12-07T13:09:30;4.67;;;2.80;;
20230;SDS011;10274;49.022;9.338;2022-12-07T13:12:01;3.97;;;2.57;;
20230;SDS011;10274;49.022;9.338;2022-12-07T13:14:41;3.00;;;2.70;;
20230;SDS011;10274;49.022;9.338;2022-12-07T13:23:13;2.37;;;2.10;;
20230;SDS011;10274;49.022;9.338;2022-12-07T13:25:48;5.70;;;2.70;;
20230;SDS011;10274;49.022;9.338;2022-12-07T13:28:22;2.63;;;1.87;;
20230;SDS011;10274;49.022;9.338;2022-12-07T13:31:00;3.33;;;2.80;;
20230;SDS011;10274;49.022;9.338;2022-12-07T13:33:36;4.83;;;2.97;;
20230;SDS011;10274;49.022;9.338;2022-12-07T13:36:03;4.13;;;2.67;;
20230;SDS011;10274;49.022;9.338;2022-12-07T13:38:32;4.53;;;2.77;;
20230;SDS011;10274;49.022;9.338;2022-12-07T13:41:05;3.27;;;2.53;;
20230;SDS011;10274;49.022;9.338;2022-12-07T13:43:47;2.97;;;2.23;;
20230;SDS011;10274;49.022;9.338;2022-12-07T13:46:17;5.47;;;2.90;;
20230;SDS011;10274;49.022;9.338;2022-12-07T13:48:48;4.50;;;3.27;;
20230;SDS011;10274;49.022;9.338;2022-12-07T13:51:23;2.70;;;2.47;;
20230;SDS011;10274;49.022;9.338;2022-12-07T13:53:52;4.07;;;2.57;;
20230;SDS011;10274;49.022;9.338;2022-12-07T13:56:26;3.93;;;2.33;;
20230;SDS011;10274;49.022;9.338;2022-12-07T13:58:57;4.20;;;2.73;;
20230;SDS011;10274;49.022;9.338;2022-12-07T14:01:24;2.93;;;2.63;;
20230;SDS011;10274;49.022;9.338;2022-12-07T14:03:51;4.13;;;2.67;;
20230;SDS011;10274;49.022;9.338;2022-12-07T14:06:23;3.87;;;3.10;;
20230;SDS011;10274;49.022;9.338;2022-12-07T14:09:07;5.20;;;3.23;;
20230;SDS011;10274;49.022;9.338;2022-12-07T14:11:36;6.50;;;2.90;;
20230;SDS011;10274;49.022;9.338;2022-12-07T14:14:04;3.47;;;2.47;;
20230;SDS011;10274;49.022;9.338;2022-12-07T14:16:32;5.40;;;3.23;;
20230;SDS011;10274;49.022;9.338;2022-12-07T14:19:01;5.00;;;3.60;;
20230;SDS011;10274;49.022;9.338;2022-12-07T14:21:29;4.40;;;2.73;;
20230;SDS011;10274;49.022;9.338;2022-12-07T14:24:11;4.47;;;3.13;;
20230;SDS011;10274;49.022;9.338;2022-12-07T14:26:46;4.17;;;2.87;;
20230;SDS011;10274;49.022;9.338;2022-12-07T14:29:30;3.43;;;2.63;;
20230;SDS011;10274;49.022;9.338;2022-12-07T14:32:08;4.33;;;2.97;;
20230;SDS011;10274;49.022;9.338;2022-12-07T14:34:52;4.87;;;2.80;;
20230;SDS011;10274;49.022;9.338;2022-12-07T14:37:20;5.87;;;3.57;;
20230;SDS011;10274;49.022;9.338;2022-12-07T14:39:47;4.10;;;2.97;;
20230;SDS011;10274;49.022;9.338;2022-12-07T14:42:15;4.10;;;3.33;;
20230;SDS011;10274;49.022;9.338;2022-12-07T14:44:42;6.07;;;4.43;;
20230;SDS011;10274;49.022;9.338;2022-12-07T14:47:10;3.40;;;2.90;;
20230;SDS011;10274;49.022;9.338;2022-12-07T14:49:37;3.23;;;2.90;;
20230;SDS011;10274;49.022;9.338;2022-12-07T14:52:04;4.33;;;3.07;;
20230;SDS011;10274;49.022;9.338;2022-12-07T14:54:31;4.00;;;3.03;;
20230;SDS011;10274;49.022;9.338;2022-12-07T14:56:59;3.77;;;2.67;;
20230;SDS011;10274;49.022;9.338;2022-12-07T14:59:27;5.00;;;3.33;;
20230;SDS011;10274;49.022;9.338;2022-12-07T15:01:53;4.13;;;3.03;;
20230;SDS011;10274;49.022;9.338;2022-12-07T15:04:20;3.43;;;2.70;;
20230;SDS011;10274;49.022;9.338;2022-12-07T15:06:54;4.33;;;2.93;;
20230;SDS011;10274;49.022;9.338;2022-12-07T15:09:22;3.97;;;3.33;;
20230;SDS011;10274;49.022;9.338;2022-12-07T15:11:48;3.70;;;2.97;;
20230;SDS011;10274;49.022;9.338;2022-12-07T15:14:15;6.07;;;3.67;;
20230;SDS011;10274;49.022;9.338;2022-12-07T15:16:43;3.67;;;2.83;;
20230;SDS011;10274;49.022;9.338;2022-12-07T15:19:11;4.47;;;3.10;;
20230;SDS011;10274;49.022;9.338;2022-12-07T15:21:39;3.80;;;2.50;;
20230;SDS011;10274;49.022;9.338;2022-12-07T15:24:07;3.13;;;2.43;;
20230;SDS011;10274;49.022;9.338;2022-12-07T15:26:35;3.73;;;3.30;;
20230;SDS011;10274;49.022;9.338;2022-12-07T15:29:02;2.77;;;2.23;;
20230;SDS011;10274;49.022;9.338;2022-12-07T15:31:28;3.60;;;3.00;;
20230;SDS011;10274;49.022;9.338;2022-12-07T15:33:57;3.03;;;2.57;;
20230;SDS011;10274;49.022;9.338;2022-12-07T15:36:24;6.33;;;4.07;;